Time;durP1;ratioP1;P1;durP2;ratioP2;P2;SDS_P1;SDS_P2;PMS_P1;PMS_P2;Temp;Humidity;BMP_temperature;BMP_pressure;BME280_temperature;BME280_humidity;BME280_pressure;Samples;Min_cycle;Max_cycle;Signal;HPM_P1;HPM_P2
2024/01/22 00:00:00;;;;;;;7.15;5.07;;;;;;;;;;2111486;28;20549;-45
2024/01/22 00:01:02;;;;;;;6.65;4.82;;;;;;;;;;2106740;28;20044;-46
2024/01/22 00:02:03;;;;;;;9.02;4.90;;;;;;;;;;2115180;28;20352;-45
2024/01/22 00:03:04;;;;;;;7.63;5.00;;;;;;;;;;2115082;28;20030;-45
2024/01/22 00:04:07;;;;;;;7.38;4.57;;;;;;;;;;2115251;28;20062;-45
2024/01/22 00:05:11;;;;;;;8.27;5.05;;;;;;;;;;2115136;28;20516;-46
2024/01/22 00:06:13;;;;;;;8.55;5.50;;;;;;;;;;2115018;28;20096;-46
2024/01/22 00:07:14;;;;;;;7.95;5.82;;;;;;;;;;2115288;28;20015;-47
2024/01/22 00:08:15;;;;;;;7.60;4.90;;;;;;;;;;2114958;28;20024;-45
2024/01/22 00:09:16;;;;;;;7.05;5.43;;;;;;;;;;2115271;28;20473;-45
2024/01/22 00:10:18;;;;;;;7.35;5.28;;;;;;;;;;2105887;28;20546;-46
2024/01/22 00:11:19;;;;;;;9.18;5.35;;;;;;;;;;2098950;28;20021;-46
2024/01/22 00:12:20;;;;;;;7.63;5.50;;;;;;;;;;2107149;28;20521;-47
2024/01/22 00:13:21;;;;;;;9.77;5.95;;;;;;;;;;2114526;28;20039;-46
2024/01/22 00:14:23;;;;;;;8.82;5.60;;;;;;;;;;2114966;28;20401;-45
2024/01/22 00:15:24;;;;;;;7.85;5.60;;;;;;;;;;2115067;28;20019;-45
2024/01/22 00:16:25;;;;;;;9.32;5.38;;;;;;;;;;2114860;28;20090;-43
2024/01/22 00:17:26;;;;;;;7.95;5.13;;;;;;;;;;2114888;28;20047;-46
2024/01/22 00:18:28;;;;;;;8.07;5.13;;;;;;;;;;2114476;28;20482;-46
2024/01/22 00:19:29;;;;;;;6.82;5.18;;;;;;;;;;2114928;28;20027;-46
2024/01/22 00:20:30;;;;;;;8.85;5.40;;;;;;;;;;2115141;28;20023;-47
2024/01/22 00:21:32;;;;;;;7.22;5.72;;;;;;;;;;2114895;28;20427;-47
2024/01/22 00:22:33;;;;;;;10.02;5.82;;;;;;;;;;2105910;28;20406;-45
2024/01/22 00:23:34;;;;;;;6.53;4.93;;;;;;;;;;2106145;28;20024;-45
2024/01/22 00:24:35;;;;;;;6.20;4.50;;;;;;;;;;2114955;28;20135;-46
2024/01/22 00:25:37;;;;;;;6.90;5.15;;;;;;;;;;2115225;28;20023;-46
2024/01/22 00:26:38;;;;;;;7.75;5.15;;;;;;;;;;2114137;28;20019;-42
2024/01/22 00:27:39;;;;;;;6.93;5.00;;;;;;;;;;2114938;28;20571;-41
2024/01/22 00:28:41;;;;;;;7.50;5.10;;;;;;;;;;2115129;28;20012;-45
2024/01/22 00:29:42;;;;;;;7.43;5.13;;;;;;;;;;2114923;28;20032;-46
2024/01/22 00:30:44;;;;;;;7.15;4.95;;;;;;;;;;2114666;28;20099;-46
2024/01/22 00:31:45;;;;;;;6.85;5.05;;;;;;;;;;2115033;28;20022;-46
2024/01/22 00:32:46;;;;;;;8.75;5.38;;;;;;;;;;2114904;28;20019;-46
2024/01/22 00:33:48;;;;;;;9.02;5.22;;;;;;;;;;2114980;28;20035;-46
2024/01/22 00:34:49;;;;;;;8.05;4.88;;;;;;;;;;2114947;28;20043;-43
2024/01/22 00:35:50;;;;;;;8.00;5.68;;;;;;;;;;2114725;28;20043;-45
2024/01/22 00:36:51;;;;;;;8.07;5.07;;;;;;;;;;2115076;28;20554;-46
2024/01/22 00:37:53;;;;;;;7.45;4.78;;;;;;;;;;2114622;28;20027;-44
2024/01/22 00:38:54;;;;;;;6.32;4.78;;;;;;;;;;2105660;28;20020;-45
2024/01/22 00:39:57;;;;;;;8.25;5.50;;;;;;;;;;2105993;28;20020;-45
2024/01/22 00:40:59;;;;;;;7.45;4.78;;;;;;;;;;2115016;28;20018;-45
2024/01/22 00:42:00;;;;;;;7.45;5.07;;;;;;;;;;2114712;28;20020;-46
2024/01/22 00:43:01;;;;;;;9.05;4.82;;;;;;;;;;2115000;28;20502;-46
2024/01/22 00:44:02;;;;;;;8.05;5.03;;;;;;;;;;2114666;28;20016;-45
2024/01/22 00:45:04;;;;;;;8.20;5.45;;;;;;;;;;2114980;28;20020;-44
2024/01/22 00:46:05;;;;;;;8.10;4.95;;;;;;;;;;2114847;28;20028;-45
2024/01/22 00:47:06;;;;;;;6.43;4.75;;;;;;;;;;2114871;28;20008;-44
2024/01/22 00:48:08;;;;;;;6.97;4.78;;;;;;;;;;2115015;28;20047;-44
2024/01/22 00:49:09;;;;;;;6.68;4.72;;;;;;;;;;2114646;28;20026;-44
2024/01/22 00:50:11;;;;;;;6.53;4.30;;;;;;;;;;2104810;28;20024;-45
2024/01/22 00:51:12;;;;;;;7.07;5.05;;;;;;;;;;2105852;28;20024;-45
2024/01/22 00:52:13;;;;;;;7.00;4.50;;;;;;;;;;2111634;28;20023;-44
2024/01/22 00:53:15;;;;;;;6.55;4.38;;;;;;;;;;2114814;28;20019;-44
2024/01/22 00:54:16;;;;;;;5.82;4.53;;;;;;;;;;2114684;28;20042;-45
2024/01/22 00:55:17;;;;;;;8.02;5.28;;;;;;;;;;2114718;28;20015;-46
2024/01/22 00:56:19;;;;;;;6.90;4.90;;;;;;;;;;2114798;28;20474;-45
2024/01/22 00:57:20;;;;;;;6.53;4.82;;;;;;;;;;2114218;28;20024;-45
2024/01/22 00:58:22;;;;;;;6.03;4.40;;;;;;;;;;2113219;28;20493;-45
2024/01/22 00:59:23;;;;;;;6.28;4.57;;;;;;;;;;2097222;28;20507;-46
2024/01/22 01:00:26;;;;;;;6.00;4.90;;;;;;;;;;2094757;28;20063;-45
2024/01/22 01:01:32;;;;;;;7.57;5.15;;;;;;;;;;2103363;28;20066;-45
2024/01/22 01:02:34;;;;;;;6.22;4.63;;;;;;;;;;2106425;28;20024;-46
2024/01/22 01:03:35;;;;;;;6.95;4.90;;;;;;;;;;2114601;28;20462;-45
2024/01/22 01:04:36;;;;;;;6.40;4.57;;;;;;;;;;2114693;28;20039;-46
2024/01/22 01:05:38;;;;;;;8.18;5.40;;;;;;;;;;2114548;28;20065;-47
2024/01/22 01:06:39;;;;;;;6.95;4.70;;;;;;;;;;2114559;28;20023;-45
2024/01/22 01:07:40;;;;;;;6.57;4.70;;;;;;;;;;2114762;28;20110;-45
2024/01/22 01:08:42;;;;;;;7.60;4.68;;;;;;;;;;2114366;28;20374;-44
2024/01/22 01:09:43;;;;;;;7.45;4.60;;;;;;;;;;2114285;28;20035;-41
2024/01/22 01:10:44;;;;;;;7.22;4.78;;;;;;;;;;2107454;28;20016;-42
2024/01/22 01:11:45;;;;;;;6.43;4.35;;;;;;;;;;2112144;28;20371;-43
2024/01/22 01:12:47;;;;;;;6.68;5.00;;;;;;;;;;2114435;28;20023;-41
2024/01/22 01:13:48;;;;;;;5.47;4.28;;;;;;;;;;2105591;28;20079;-45
2024/01/22 01:14:49;;;;;;;7.95;4.57;;;;;;;;;;2105534;28;20053;-42
2024/01/22 01:15:50;;;;;;;6.88;4.90;;;;;;;;;;2114564;28;20479;-44
2024/01/22 01:16:52;;;;;;;8.00;5.15;;;;;;;;;;2113683;28;20084;-46
2024/01/22 01:17:53;;;;;;;8.20;5.50;;;;;;;;;;2110514;28;20024;-46
2024/01/22 01:18:54;;;;;;;6.45;4.90;;;;;;;;;;2104489;28;20076;-44
2024/01/22 01:19:56;;;;;;;7.85;5.10;;;;;;;;;;2104909;28;20111;-44
2024/01/22 01:20:57;;;;;;;6.50;4.63;;;;;;;;;;2107974;28;20102;-46
2024/01/22 01:21:58;;;;;;;8.80;5.35;;;;;;;;;;2114576;28;20012;-44
2024/01/22 01:23:00;;;;;;;6.20;4.68;;;;;;;;;;2105488;28;20021;-44
2024/01/22 01:24:01;;;;;;;7.20;5.30;;;;;;;;;;2105460;28;20024;-47
2024/01/22 01:25:02;;;;;;;7.70;5.30;;;;;;;;;;2114465;28;20020;-44
2024/01/22 01:26:04;;;;;;;7.78;5.53;;;;;;;;;;2114366;28;20051;-45
2024/01/22 01:27:05;;;;;;;8.80;5.68;;;;;;;;;;2111767;28;20037;-45
2024/01/22 01:28:06;;;;;;;8.57;5.35;;;;;;;;;;2113564;28;20062;-45
2024/01/22 01:29:08;;;;;;;7.70;4.80;;;;;;;;;;2113533;28;20026;-45
2024/01/22 01:30:10;;;;;;;7.72;5.60;;;;;;;;;;2103809;28;20023;-46
2024/01/22 01:31:11;;;;;;;8.10;5.45;;;;;;;;;;2097062;28;20033;-45
2024/01/22 01:32:13;;;;;;;9.15;5.70;;;;;;;;;;2106130;28;20027;-43
2024/01/22 01:33:14;;;;;;;7.13;5.15;;;;;;;;;;2105597;28;20020;-45
2024/01/22 01:34:15;;;;;;;7.63;5.32;;;;;;;;;;2105480;28;20103;-46
2024/01/22 01:35:16;;;;;;;8.38;5.40;;;;;;;;;;2114263;28;20028;-46
2024/01/22 01:36:18;;;;;;;7.38;5.50;;;;;;;;;;2114516;28;20096;-47
2024/01/22 01:37:19;;;;;;;7.63;5.78;;;;;;;;;;2114114;28;20478;-46
2024/01/22 01:38:20;;;;;;;7.22;5.13;;;;;;;;;;2114339;28;20081;-45
2024/01/22 01:39:22;;;;;;;7.78;5.60;;;;;;;;;;2114278;28;20024;-42
2024/01/22 01:40:24;;;;;;;8.27;5.57;;;;;;;;;;2114312;28;20386;-41
2024/01/22 01:41:25;;;;;;;7.15;5.25;;;;;;;;;;2114170;28;20081;-42
2024/01/22 01:42:27;;;;;;;7.78;5.35;;;;;;;;;;2114469;28;20397;-41
2024/01/22 01:43:28;;;;;;;6.97;5.22;;;;;;;;;;2114258;28;20014;-41
2024/01/22 01:44:38;;;;;;;8.88;5.53;;;;;;;;;;2114249;28;20020;-41
2024/01/22 01:45:39;;;;;;;9.77;5.60;;;;;;;;;;2114032;28;20028;-42
2024/01/22 01:46:41;;;;;;;6.68;5.22;;;;;;;;;;2114079;28;20020;-43
2024/01/22 01:47:43;;;;;;;7.50;5.72;;;;;;;;;;2114237;28;20031;-44
2024/01/22 01:48:44;;;;;;;8.27;5.03;;;;;;;;;;2113924;28;20020;-41
2024/01/22 01:49:47;;;;;;;6.75;5.22;;;;;;;;;;2113952;28;20069;-41
2024/01/22 01:50:48;;;;;;;9.35;5.70;;;;;;;;;;2113970;28;20016;-41
2024/01/22 01:51:49;;;;;;;8.68;5.70;;;;;;;;;;2114092;28;20039;-42
2024/01/22 01:52:51;;;;;;;7.68;5.82;;;;;;;;;;2114372;28;20019;-44
2024/01/22 01:53:53;;;;;;;8.10;5.65;;;;;;;;;;2105052;28;20091;-44
2024/01/22 01:54:54;;;;;;;8.60;5.88;;;;;;;;;;2106253;28;20024;-44
2024/01/22 01:55:56;;;;;;;8.90;5.28;;;;;;;;;;2114434;28;20024;-44
2024/01/22 01:56:57;;;;;;;7.68;5.53;;;;;;;;;;2114087;28;20447;-42
2024/01/22 01:58:00;;;;;;;8.45;5.32;;;;;;;;;;2113993;28;20505;-42
2024/01/22 01:59:01;;;;;;;7.78;5.57;;;;;;;;;;2105891;28;20020;-43
2024/01/22 02:00:05;;;;;;;8.45;5.38;;;;;;;;;;2109334;28;20431;-47
2024/01/22 02:01:06;;;;;;;7.65;5.13;;;;;;;;;;2114092;28;20027;-43
2024/01/22 02:02:08;;;;;;;9.32;5.90;;;;;;;;;;2113917;28;20027;-42
2024/01/22 02:03:11;;;;;;;8.98;6.00;;;;;;;;;;2105148;28;20020;-43
2024/01/22 02:04:12;;;;;;;8.88;6.10;;;;;;;;;;2104444;28;20022;-43
2024/01/22 02:05:14;;;;;;;8.68;5.40;;;;;;;;;;2096932;28;20051;-43
2024/01/22 02:06:15;;;;;;;7.13;5.47;;;;;;;;;;2104258;28;20490;-43
2024/01/22 02:07:17;;;;;;;9.25;5.97;;;;;;;;;;2114011;28;20041;-43
2024/01/22 02:08:18;;;;;;;7.13;5.65;;;;;;;;;;2114155;28;20030;-43
2024/01/22 02:09:19;;;;;;;8.43;5.75;;;;;;;;;;2113965;28;20016;-41
2024/01/22 02:10:20;;;;;;;7.93;5.85;;;;;;;;;;2114068;28;20076;-43
2024/01/22 02:11:22;;;;;;;9.40;5.40;;;;;;;;;;2114383;28;20038;-43
2024/01/22 02:12:24;;;;;;;7.28;5.00;;;;;;;;;;2114067;28;20011;-43
2024/01/22 02:13:26;;;;;;;9.10;5.63;;;;;;;;;;2105081;28;20468;-44
2024/01/22 02:14:27;;;;;;;6.53;5.22;;;;;;;;;;2105540;28;20028;-43
2024/01/22 02:15:28;;;;;;;7.40;5.20;;;;;;;;;;2101068;28;20105;-44
2024/01/22 02:16:30;;;;;;;7.90;5.38;;;;;;;;;;2097060;28;20387;-43
2024/01/22 02:17:31;;;;;;;7.57;5.13;;;;;;;;;;2096680;28;20063;-44
2024/01/22 02:18:32;;;;;;;7.32;5.63;;;;;;;;;;2099205;28;20009;-44
2024/01/22 02:19:34;;;;;;;7.47;5.53;;;;;;;;;;2114193;28;20015;-44
2024/01/22 02:20:35;;;;;;;7.63;5.15;;;;;;;;;;2113638;28;20562;-43
2024/01/22 02:21:36;;;;;;;9.45;5.53;;;;;;;;;;2113697;28;20024;-44
2024/01/22 02:22:38;;;;;;;8.18;5.90;;;;;;;;;;2114117;28;20012;-43
2024/01/22 02:23:39;;;;;;;10.35;6.18;;;;;;;;;;2109608;28;20035;-42
2024/01/22 02:24:40;;;;;;;8.77;6.55;;;;;;;;;;2105824;28;20016;-43
2024/01/22 02:25:41;;;;;;;8.02;5.72;;;;;;;;;;2113858;28;20015;-43
2024/01/22 02:26:43;;;;;;;8.07;5.57;;;;;;;;;;2114032;28;20462;-43
2024/01/22 02:27:44;;;;;;;9.52;5.90;;;;;;;;;;2114109;28;20028;-43
2024/01/22 02:28:45;;;;;;;8.50;5.20;;;;;;;;;;2107287;28;20031;-43
2024/01/22 02:29:47;;;;;;;8.55;5.45;;;;;;;;;;2107517;28;20043;-43
2024/01/22 02:30:48;;;;;;;7.68;5.30;;;;;;;;;;2105086;28;20508;-42
2024/01/22 02:31:50;;;;;;;7.10;5.20;;;;;;;;;;2105028;28;20021;-43
2024/01/22 02:32:51;;;;;;;8.75;5.28;;;;;;;;;;2104938;28;20371;-43
2024/01/22 02:33:52;;;;;;;6.85;4.93;;;;;;;;;;2105249;28;20043;-43
2024/01/22 02:34:53;;;;;;;6.32;5.20;;;;;;;;;;2112168;28;20490;-44
2024/01/22 02:35:55;;;;;;;8.93;5.97;;;;;;;;;;2114172;28;20023;-43
2024/01/22 02:36:56;;;;;;;7.97;5.55;;;;;;;;;;2104810;28;20024;-44
2024/01/22 02:37:57;;;;;;;8.15;5.78;;;;;;;;;;2104899;28;20024;-44
2024/01/22 02:38:59;;;;;;;9.68;5.93;;;;;;;;;;2114354;28;20394;-44
2024/01/22 02:40:00;;;;;;;9.57;5.90;;;;;;;;;;2115546;28;20007;-44
2024/01/22 02:41:01;;;;;;;11.13;6.22;;;;;;;;;;2115994;28;20463;-47
2024/01/22 02:42:02;;;;;;;9.20;6.25;;;;;;;;;;2114304;28;20111;-45
2024/01/22 02:43:04;;;;;;;7.85;5.85;;;;;;;;;;2106653;28;20009;-44
2024/01/22 02:44:05;;;;;;;8.40;5.80;;;;;;;;;;2095988;28;20016;-46
2024/01/22 02:45:07;;;;;;;8.05;5.65;;;;;;;;;;2105483;28;20024;-43
2024/01/22 02:46:08;;;;;;;7.53;5.75;;;;;;;;;;2115748;28;20031;-44
2024/01/22 02:47:09;;;;;;;7.90;6.05;;;;;;;;;;2115897;28;20498;-43
2024/01/22 02:48:11;;;;;;;8.05;6.35;;;;;;;;;;2115601;28;20028;-45
2024/01/22 02:49:13;;;;;;;11.10;6.75;;;;;;;;;;2115588;28;20028;-44
2024/01/22 02:50:14;;;;;;;8.85;6.30;;;;;;;;;;2115888;28;20514;-45
2024/01/22 02:51:15;;;;;;;10.35;6.55;;;;;;;;;;2115630;28;20019;-44
2024/01/22 02:52:17;;;;;;;7.60;5.80;;;;;;;;;;2115761;28;20475;-43
2024/01/22 02:53:18;;;;;;;8.70;5.53;;;;;;;;;;2115572;28;20027;-43
2024/01/22 02:54:19;;;;;;;8.57;5.60;;;;;;;;;;2113678;28;20066;-43
2024/01/22 02:55:20;;;;;;;8.55;5.53;;;;;;;;;;2107480;28;20028;-45
2024/01/22 02:56:22;;;;;;;9.27;6.22;;;;;;;;;;2114951;28;20027;-44
2024/01/22 02:57:23;;;;;;;8.70;6.22;;;;;;;;;;2106452;28;20043;-44
2024/01/22 02:58:24;;;;;;;9.23;5.70;;;;;;;;;;2106785;28;20012;-46
2024/01/22 02:59:26;;;;;;;9.77;5.95;;;;;;;;;;2115607;28;20501;-46
2024/01/22 03:00:27;;;;;;;7.53;5.63;;;;;;;;;;2115798;28;20636;-43
2024/01/22 03:01:28;;;;;;;8.45;5.63;;;;;;;;;;2115733;28;20035;-44
2024/01/22 03:02:29;;;;;;;7.47;6.10;;;;;;;;;;2115499;28;20020;-46
2024/01/22 03:03:31;;;;;;;8.18;5.65;;;;;;;;;;2115593;28;20505;-47
2024/01/22 03:04:35;;;;;;;9.95;6.32;;;;;;;;;;2115563;28;20027;-46
2024/01/22 03:05:36;;;;;;;8.20;6.07;;;;;;;;;;2115531;28;20086;-46
2024/01/22 03:06:38;;;;;;;8.20;5.93;;;;;;;;;;2115653;28;20454;-46
2024/01/22 03:07:39;;;;;;;9.30;6.47;;;;;;;;;;2115499;28;20095;-46
2024/01/22 03:08:41;;;;;;;9.52;5.90;;;;;;;;;;2112209;28;20025;-46
2024/01/22 03:09:42;;;;;;;9.30;5.70;;;;;;;;;;2106451;28;20495;-47
2024/01/22 03:10:44;;;;;;;10.75;6.30;;;;;;;;;;2106321;28;20107;-47
2024/01/22 03:11:45;;;;;;;8.27;6.10;;;;;;;;;;2115722;28;20481;-46
2024/01/22 03:12:46;;;;;;;8.00;6.03;;;;;;;;;;2115497;28;20102;-46
2024/01/22 03:13:48;;;;;;;9.55;6.15;;;;;;;;;;2115480;28;20054;-43
2024/01/22 03:14:49;;;;;;;9.13;6.15;;;;;;;;;;2114750;28;20020;-43
2024/01/22 03:15:50;;;;;;;10.27;6.40;;;;;;;;;;2115212;28;20023;-44
2024/01/22 03:16:52;;;;;;;9.70;6.45;;;;;;;;;;2115053;28;20447;-43
2024/01/22 03:17:53;;;;;;;10.15;6.55;;;;;;;;;;2115439;28;20382;-43
2024/01/22 03:18:54;;;;;;;7.68;5.60;;;;;;;;;;2111419;28;20169;-43
2024/01/22 03:19:55;;;;;;;9.77;6.25;;;;;;;;;;2115714;28;20008;-42
2024/01/22 03:20:57;;;;;;;15.05;9.52;;;;;;;;;;2115230;28;20530;-44
2024/01/22 03:21:58;;;;;;;7.22;5.90;;;;;;;;;;2115488;28;20016;-42
2024/01/22 03:22:59;;;;;;;8.95;6.18;;;;;;;;;;2106462;28;20024;-45
2024/01/22 03:24:01;;;;;;;8.50;6.13;;;;;;;;;;2106424;28;20052;-45
2024/01/22 03:25:02;;;;;;;8.43;5.70;;;;;;;;;;2114198;28;20090;-45
2024/01/22 03:26:04;;;;;;;8.13;5.68;;;;;;;;;;2107028;28;20034;-45
2024/01/22 03:27:05;;;;;;;7.72;5.70;;;;;;;;;;2112399;28;20098;-45
2024/01/22 03:28:06;;;;;;;9.90;5.68;;;;;;;;;;2115420;28;20016;-45
2024/01/22 03:29:08;;;;;;;8.00;5.97;;;;;;;;;;2115445;28;20023;-47
2024/01/22 03:30:09;;;;;;;8.43;6.05;;;;;;;;;;2111778;28;20019;-45
2024/01/22 03:31:19;;;;;;;8.85;5.93;;;;;;;;;;2098031;28;20012;-45
2024/01/22 03:32:21;;;;;;;7.55;5.55;;;;;;;;;;2106814;28;20060;-47
2024/01/22 03:33:29;;;;;;;7.57;5.72;;;;;;;;;;2107933;28;20024;-45
2024/01/22 03:34:30;;;;;;;8.63;5.85;;;;;;;;;;2115984;28;20028;-46
2024/01/22 03:35:31;;;;;;;8.05;5.75;;;;;;;;;;2114862;28;20466;-46
2024/01/22 03:36:33;;;;;;;7.72;5.47;;;;;;;;;;2115525;28;20093;-47
2024/01/22 03:37:34;;;;;;;8.25;5.63;;;;;;;;;;2115872;28;20038;-47
2024/01/22 03:38:35;;;;;;;9.85;5.85;;;;;;;;;;2115464;28;20042;-46
2024/01/22 03:39:37;;;;;;;7.97;5.90;;;;;;;;;;2114695;28;20385;-45
2024/01/22 03:40:38;;;;;;;7.50;5.70;;;;;;;;;;2115367;28;20011;-45
2024/01/22 03:41:39;;;;;;;7.97;5.45;;;;;;;;;;2115197;28;20020;-46
2024/01/22 03:42:40;;;;;;;7.80;5.20;;;;;;;;;;2115241;28;20073;-44
2024/01/22 03:43:42;;;;;;;8.48;6.30;;;;;;;;;;2115371;28;20087;-44
2024/01/22 03:44:43;;;;;;;9.75;6.40;;;;;;;;;;2115349;28;20069;-47
2024/01/22 03:45:45;;;;;;;8.15;5.35;;;;;;;;;;2115375;28;20057;-47
2024/01/22 03:46:46;;;;;;;8.05;5.70;;;;;;;;;;2105938;28;20023;-48
2024/01/22 03:47:47;;;;;;;8.85;5.60;;;;;;;;;;2106095;28;20032;-47
2024/01/22 03:48:49;;;;;;;7.53;5.53;;;;;;;;;;2115426;28;20478;-47
2024/01/22 03:49:50;;;;;;;8.73;5.70;;;;;;;;;;2114759;28;20039;-45
2024/01/22 03:50:53;;;;;;;7.65;6.03;;;;;;;;;;2114972;28;20031;-44
2024/01/22 03:51:54;;;;;;;9.18;6.05;;;;;;;;;;2115244;28;20031;-45
2024/01/22 03:52:55;;;;;;;8.50;5.85;;;;;;;;;;2115230;28;20065;-46
2024/01/22 03:53:57;;;;;;;8.75;6.35;;;;;;;;;;2115181;28;20102;-46
2024/01/22 03:54:58;;;;;;;7.63;5.95;;;;;;;;;;2103168;28;20399;-47
2024/01/22 03:56:02;;;;;;;9.30;6.05;;;;;;;;;;2100524;28;20032;-45
2024/01/22 03:57:07;;;;;;;9.02;6.22;;;;;;;;;;2115128;28;20509;-46
2024/01/22 03:58:08;;;;;;;10.15;6.57;;;;;;;;;;2114768;28;20053;-46
2024/01/22 03:59:10;;;;;;;9.50;5.90;;;;;;;;;;2115022;28;20107;-45
2024/01/22 04:00:11;;;;;;;7.35;5.47;;;;;;;;;;2106095;28;20020;-43
2024/01/22 04:01:20;;;;;;;9.20;6.50;;;;;;;;;;2106060;28;20032;-47
2024/01/22 04:02:21;;;;;;;7.97;6.07;;;;;;;;;;2115297;28;20602;-43
2024/01/22 04:03:23;;;;;;;8.98;6.47;;;;;;;;;;2115297;28;20016;-44
2024/01/22 04:04:24;;;;;;;8.85;6.30;;;;;;;;;;2115138;28;20016;-46
2024/01/22 04:05:25;;;;;;;7.65;5.85;;;;;;;;;;2106127;28;20051;-47
2024/01/22 04:06:27;;;;;;;8.88;5.93;;;;;;;;;;2106321;28;20559;-46
2024/01/22 04:07:28;;;;;;;8.55;6.15;;;;;;;;;;2115145;28;20068;-46
2024/01/22 04:08:30;;;;;;;8.00;5.72;;;;;;;;;;2103646;28;20028;-45
2024/01/22 04:09:31;;;;;;;8.68;6.47;;;;;;;;;;2096940;28;20017;-46
2024/01/22 04:10:32;;;;;;;8.82;6.05;;;;;;;;;;2106036;28;20383;-45
2024/01/22 04:11:33;;;;;;;9.38;6.57;;;;;;;;;;2106035;28;20498;-41
2024/01/22 04:12:35;;;;;;;7.88;5.93;;;;;;;;;;2106065;28;20023;-41
2024/01/22 04:13:39;;;;;;;8.82;6.38;;;;;;;;;;2114921;28;20020;-42
2024/01/22 04:14:41;;;;;;;8.30;5.85;;;;;;;;;;2104080;28;20031;-42
2024/01/22 04:15:42;;;;;;;9.27;6.00;;;;;;;;;;2103145;28;20020;-42
2024/01/22 04:16:44;;;;;;;8.98;6.45;;;;;;;;;;2106085;28;20024;-42
2024/01/22 04:17:45;;;;;;;8.88;6.28;;;;;;;;;;2106363;28;20071;-41
2024/01/22 04:18:47;;;;;;;11.50;6.65;;;;;;;;;;2114943;28;20064;-42
2024/01/22 04:19:48;;;;;;;9.90;6.25;;;;;;;;;;2115241;28;20452;-45
2024/01/22 04:20:49;;;;;;;12.23;6.32;;;;;;;;;;2114999;28;20103;-45
2024/01/22 04:21:51;;;;;;;11.18;6.30;;;;;;;;;;2114900;28;20076;-45
2024/01/22 04:22:52;;;;;;;11.80;6.20;;;;;;;;;;2115143;28;20012;-46
2024/01/22 04:23:54;;;;;;;9.18;6.45;;;;;;;;;;2114896;28;20024;-46
2024/01/22 04:24:55;;;;;;;8.43;6.35;;;;;;;;;;2114856;28;20470;-43
2024/01/22 04:25:56;;;;;;;10.00;6.72;;;;;;;;;;2114953;28;20367;-46
2024/01/22 04:26:57;;;;;;;10.40;6.35;;;;;;;;;;2114981;28;20049;-46
2024/01/22 04:27:59;;;;;;;9.13;6.43;;;;;;;;;;2114989;28;20156;-46
2024/01/22 04:29:00;;;;;;;9.73;7.07;;;;;;;;;;2110316;28;20051;-47
2024/01/22 04:30:01;;;;;;;10.57;7.03;;;;;;;;;;2100499;28;20047;-47
2024/01/22 04:31:02;;;;;;;8.38;6.18;;;;;;;;;;2106031;28;20034;-47
2024/01/22 04:32:04;;;;;;;8.93;6.63;;;;;;;;;;2114832;28;20020;-46
2024/01/22 04:33:05;;;;;;;9.15;6.75;;;;;;;;;;2114799;28;20024;-46
2024/01/22 04:34:06;;;;;;;9.95;6.63;;;;;;;;;;2105901;28;20020;-46
2024/01/22 04:35:08;;;;;;;8.27;6.38;;;;;;;;;;2105782;28;20016;-47
2024/01/22 04:36:09;;;;;;;10.73;6.78;;;;;;;;;;2105833;28;20024;-47
2024/01/22 04:37:11;;;;;;;8.57;6.65;;;;;;;;;;2105843;28;20087;-49
2024/01/22 04:38:12;;;;;;;10.65;7.07;;;;;;;;;;2114599;28;20031;-47
2024/01/22 04:39:13;;;;;;;10.50;6.85;;;;;;;;;;2115002;28;20023;-47
2024/01/22 04:40:15;;;;;;;9.25;6.65;;;;;;;;;;2114743;28;20019;-47
2024/01/22 04:41:16;;;;;;;9.27;6.78;;;;;;;;;;2105693;28;20027;-48
2024/01/22 04:42:20;;;;;;;10.52;6.47;;;;;;;;;;2105991;28;20170;-45
2024/01/22 04:43:21;;;;;;;10.75;7.15;;;;;;;;;;2114780;28;20093;-47
2024/01/22 04:44:22;;;;;;;9.68;7.05;;;;;;;;;;2105812;28;20387;-49
2024/01/22 04:45:24;;;;;;;9.40;6.68;;;;;;;;;;2106217;28;20012;-47
2024/01/22 04:46:26;;;;;;;11.32;6.95;;;;;;;;;;2114737;28;20043;-46
2024/01/22 04:47:27;;;;;;;11.40;6.68;;;;;;;;;;2114975;28;20390;-46
2024/01/22 04:48:28;;;;;;;9.18;6.88;;;;;;;;;;2113967;28;20015;-46
2024/01/22 04:49:30;;;;;;;9.00;6.80;;;;;;;;;;2114814;28;20194;-47
2024/01/22 04:50:31;;;;;;;10.55;7.63;;;;;;;;;;2114873;28;20104;-45
2024/01/22 04:51:32;;;;;;;10.20;6.80;;;;;;;;;;2114647;28;20012;-46
2024/01/22 04:52:33;;;;;;;12.10;7.30;;;;;;;;;;2114802;28;20008;-46
2024/01/22 04:53:36;;;;;;;9.70;7.00;;;;;;;;;;2114566;28;20027;-46
2024/01/22 04:54:37;;;;;;;9.85;7.13;;;;;;;;;;2114751;28;20016;-45
2024/01/22 04:55:38;;;;;;;8.48;6.32;;;;;;;;;;2114694;28;20050;-45
2024/01/22 04:56:45;;;;;;;9.18;7.00;;;;;;;;;;2114686;28;20024;-45
2024/01/22 04:57:46;;;;;;;9.82;6.88;;;;;;;;;;2111093;28;20028;-42
2024/01/22 04:58:47;;;;;;;9.43;6.70;;;;;;;;;;2106219;28;20028;-43
2024/01/22 04:59:49;;;;;;;10.07;7.10;;;;;;;;;;2113816;28;20024;-43
2024/01/22 05:00:50;;;;;;;9.90;6.90;;;;;;;;;;2114518;28;20023;-43
2024/01/22 05:01:51;;;;;;;11.98;7.13;;;;;;;;;;2113842;28;20020;-47
2024/01/22 05:02:52;;;;;;;10.48;7.22;;;;;;;;;;2114404;28;20046;-45
2024/01/22 05:03:54;;;;;;;10.90;7.03;;;;;;;;;;2114443;28;20373;-47
2024/01/22 05:04:58;;;;;;;10.48;7.75;;;;;;;;;;2114924;28;20030;-47
2024/01/22 05:05:59;;;;;;;11.00;7.03;;;;;;;;;;2114651;28;20019;-45
2024/01/22 05:07:00;;;;;;;8.45;6.70;;;;;;;;;;2105529;28;20027;-47
2024/01/22 05:08:07;;;;;;;9.98;6.97;;;;;;;;;;2098236;28;20028;-46
2024/01/22 05:09:09;;;;;;;10.70;7.32;;;;;;;;;;2113244;28;20027;-46
2024/01/22 05:10:11;;;;;;;8.80;6.57;;;;;;;;;;2114180;28;20097;-46
2024/01/22 05:11:12;;;;;;;11.48;7.25;;;;;;;;;;2114490;28;20102;-45
2024/01/22 05:12:13;;;;;;;9.32;6.90;;;;;;;;;;2101835;28;20056;-46
2024/01/22 05:13:14;;;;;;;10.82;7.15;;;;;;;;;;2097170;28;20104;-44
2024/01/22 05:14:16;;;;;;;10.02;6.75;;;;;;;;;;2111810;28;20030;-46
2024/01/22 05:15:18;;;;;;;9.10;6.20;;;;;;;;;;2114456;28;20027;-46
2024/01/22 05:16:20;;;;;;;9.73;6.90;;;;;;;;;;2114643;28;20517;-45
2024/01/22 05:17:21;;;;;;;9.85;7.10;;;;;;;;;;2114497;28;20023;-47
2024/01/22 05:18:23;;;;;;;14.23;9.23;;;;;;;;;;2105429;28;20028;-47
2024/01/22 05:19:24;;;;;;;12.25;7.63;;;;;;;;;;2096047;28;20032;-46
2024/01/22 05:20:25;;;;;;;10.70;6.95;;;;;;;;;;2094954;28;20399;-47
2024/01/22 05:21:26;;;;;;;8.70;7.10;;;;;;;;;;2102296;28;20620;-41
2024/01/22 05:22:28;;;;;;;8.07;6.85;;;;;;;;;;2114305;28;20111;-40
2024/01/22 05:23:29;;;;;;;9.35;6.78;;;;;;;;;;2105375;28;20030;-42
2024/01/22 05:24:30;;;;;;;10.82;7.25;;;;;;;;;;2105497;28;20012;-42
2024/01/22 05:25:32;;;;;;;10.27;7.15;;;;;;;;;;2114428;28;20016;-45
2024/01/22 05:26:33;;;;;;;10.38;7.10;;;;;;;;;;2115328;27;20027;-42
2024/01/22 05:27:34;;;;;;;10.90;7.13;;;;;;;;;;2108423;28;20012;-41
2024/01/22 05:28:36;;;;;;;10.88;7.35;;;;;;;;;;2113232;28;20016;-41
2024/01/22 05:29:37;;;;;;;9.52;7.05;;;;;;;;;;2114434;28;20026;-41
2024/01/22 05:30:38;;;;;;;10.10;7.22;;;;;;;;;;2114453;28;20020;-41
2024/01/22 05:31:40;;;;;;;13.25;7.57;;;;;;;;;;2114313;28;20023;-43
2024/01/22 05:32:41;;;;;;;10.65;7.55;;;;;;;;;;2114358;28;20024;-41
2024/01/22 05:33:43;;;;;;;11.52;7.75;;;;;;;;;;2114360;28;20088;-41
2024/01/22 05:34:44;;;;;;;10.50;7.20;;;;;;;;;;2114262;28;20508;-41
2024/01/22 05:35:45;;;;;;;9.43;7.05;;;;;;;;;;2114441;28;20044;-41
2024/01/22 05:36:46;;;;;;;11.40;6.95;;;;;;;;;;2113859;28;20055;-41
2024/01/22 05:37:49;;;;;;;9.85;7.28;;;;;;;;;;2114529;28;20032;-41
2024/01/22 05:38:50;;;;;;;9.98;7.25;;;;;;;;;;2112619;28;20020;-42
2024/01/22 05:39:51;;;;;;;10.63;7.68;;;;;;;;;;2108597;28;20046;-42
2024/01/22 05:40:53;;;;;;;10.45;7.05;;;;;;;;;;2106145;28;20103;-41
2024/01/22 05:41:54;;;;;;;9.00;6.70;;;;;;;;;;2098403;28;20028;-41
2024/01/22 05:42:56;;;;;;;9.27;6.95;;;;;;;;;;2099111;28;20028;-41
2024/01/22 05:43:57;;;;;;;8.68;6.65;;;;;;;;;;2114448;28;20099;-41
2024/01/22 05:44:58;;;;;;;9.88;6.95;;;;;;;;;;2114408;28;20038;-41
2024/01/22 05:46:00;;;;;;;10.70;6.50;;;;;;;;;;2106990;28;20099;-42
2024/01/22 05:47:01;;;;;;;10.65;7.22;;;;;;;;;;2113531;28;20485;-43
2024/01/22 05:48:03;;;;;;;11.52;7.20;;;;;;;;;;2112060;28;20102;-41
2024/01/22 05:49:05;;;;;;;9.20;6.85;;;;;;;;;;2103092;28;20016;-40
2024/01/22 05:50:07;;;;;;;9.43;6.97;;;;;;;;;;2097307;28;20114;-41
2024/01/22 05:51:10;;;;;;;9.48;6.78;;;;;;;;;;2113872;28;20042;-43
2024/01/22 05:52:11;;;;;;;10.05;7.10;;;;;;;;;;2114465;28;20550;-45
2024/01/22 05:53:13;;;;;;;10.02;6.82;;;;;;;;;;2113658;28;20047;-43
2024/01/22 05:54:14;;;;;;;9.95;7.18;;;;;;;;;;2113901;28;20019;-43
2024/01/22 05:55:16;;;;;;;9.82;7.22;;;;;;;;;;2112216;28;20028;-43
2024/01/22 05:56:26;;;;;;;8.88;7.00;;;;;;;;;;2112271;28;20048;-44
2024/01/22 05:57:28;;;;;;;9.90;7.47;;;;;;;;;;2113047;28;20029;-45
2024/01/22 05:58:29;;;;;;;10.52;7.07;;;;;;;;;;2107621;28;20059;-45
2024/01/22 05:59:30;;;;;;;10.27;6.90;;;;;;;;;;2110758;28;20451;-45
2024/01/22 06:00:31;;;;;;;12.05;7.28;;;;;;;;;;2108025;28;20020;-45
2024/01/22 06:01:33;;;;;;;19.80;8.00;;;;;;;;;;2114170;28;20454;-46
2024/01/22 06:02:34;;;;;;;11.00;7.72;;;;;;;;;;2114173;28;20015;-44
2024/01/22 06:03:35;;;;;;;10.00;7.00;;;;;;;;;;2114405;28;20023;-44
2024/01/22 06:04:36;;;;;;;9.48;7.43;;;;;;;;;;2114184;28;20136;-45
2024/01/22 06:05:38;;;;;;;10.95;7.78;;;;;;;;;;2114331;28;20428;-45
2024/01/22 06:06:40;;;;;;;9.45;7.25;;;;;;;;;;2114204;28;20385;-44
2024/01/22 06:07:42;;;;;;;9.73;7.40;;;;;;;;;;2104478;28;20109;-46